sensor_id;sensor_type;location;lat;lon;timestamp;pressure;altitude;pressure_sealevel;temperature;humidity
75420;BME280;63998;52.488;13.428;2023-06-24T00:01:16;101692.19;;;17.79;81.19
75420;BME280;63998;52.488;13.428;2023-06-24T00:03:41;101689.50;;;17.84;81.21
75420;BME280;63998;52.488;13.428;2023-06-24T00:06:08;101696.47;;;17.86;80.86
75420;BME280;63998;52.488;13.428;2023-06-24T00:08:35;101700.94;;;17.80;81.70
75420;BME280;63998;52.488;13.428;2023-06-24T00:11:01;101710.59;;;17.79;81.88
75420;BME280;63998;52.488;13.428;2023-06-24T00:13:27;101714.88;;;17.85;81.72
75420;BME280;63998;52.488;13.428;2023-06-24T00:15:54;101702.59;;;17.87;81.77
75420;BME280;63998;52.488;13.428;2023-06-24T00:18:19;101706.00;;;17.95;81.66
75420;BME280;63998;52.488;13.428;2023-06-24T00:20:45;101721.75;;;17.95;81.90
75420;BME280;63998;52.488;13.428;2023-06-24T00:23:13;101718.22;;;17.99;81.64
75420;BME280;63998;52.488;13.428;2023-06-24T00:25:42;101713.97;;;17.89;82.79
75420;BME280;63998;52.488;13.428;2023-06-24T00:28:07;101725.44;;;17.82;83.13
75420;BME280;63998;52.488;13.428;2023-06-24T00:30:33;101720.25;;;17.76;83.84
75420;BME280;63998;52.488;13.428;2023-06-24T00:32:58;101722.06;;;17.71;84.06
75420;BME280;63998;52.488;13.428;2023-06-24T00:35:23;101724.66;;;17.74;84.20
75420;BME280;63998;52.488;13.428;2023-06-24T00:37:49;101722.91;;;17.73;84.52
75420;BME280;63998;52.488;13.428;2023-06-24T00:40:14;101722.13;;;17.68;84.58
75420;BME280;63998;52.488;13.428;2023-06-24T00:42:42;101718.63;;;17.63;84.83
75420;BME280;63998;52.488;13.428;2023-06-24T00:45:09;101717.78;;;17.59;85.27
75420;BME280;63998;52.488;13.428;2023-06-24T00:47:35;101724.91;;;17.51;85.60
75420;BME280;63998;52.488;13.428;2023-06-24T00:50:01;101720.50;;;17.54;85.40
75420;BME280;63998;52.488;13.428;2023-06-24T00:52:26;101715.22;;;17.54;85.48
75420;BME280;63998;52.488;13.428;2023-06-24T00:54:51;101718.69;;;17.56;85.05
75420;BME280;63998;52.488;13.428;2023-06-24T00:57:19;101738.00;;;17.55;85.10
75420;BME280;63998;52.488;13.428;2023-06-24T00:59:50;101735.44;;;17.45;85.21
75420;BME280;63998;52.488;13.428;2023-06-24T01:02:19;101739.91;;;17.41;85.41
75420;BME280;63998;52.488;13.428;2023-06-24T01:04:46;101732.91;;;17.40;85.44
75420;BME280;63998;52.488;13.428;2023-06-24T01:07:12;101737.28;;;17.40;85.58
75420;BME280;63998;52.488;13.428;2023-06-24T01:09:37;101729.44;;;17.35;85.20
75420;BME280;63998;52.488;13.428;2023-06-24T01:12:03;101724.19;;;17.35;85.16
75420;BME280;63998;52.488;13.428;2023-06-24T01:14:29;101727.66;;;17.37;84.58
75420;BME280;63998;52.488;13.428;2023-06-24T01:17:08;101727.72;;;17.31;84.59
75420;BME280;63998;52.488;13.428;2023-06-24T01:34:06;101719.94;;;17.20;83.96
75420;BME280;63998;52.488;13.428;2023-06-24T01:36:38;101716.50;;;17.17;83.59
75420;BME280;63998;52.488;13.428;2023-06-24T01:39:08;101717.31;;;17.19;83.37
75420;BME280;63998;52.488;13.428;2023-06-24T01:41:40;101707.75;;;17.16;83.08
75420;BME280;63998;52.488;13.428;2023-06-24T01:44:09;101710.38;;;17.15;83.11
75420;BME280;63998;52.488;13.428;2023-06-24T01:46:35;101710.41;;;17.12;83.11
75420;BME280;63998;52.488;13.428;2023-06-24T01:49:04;101712.16;;;17.13;82.83
75420;BME280;63998;52.488;13.428;2023-06-24T01:51:34;101704.31;;;17.07;83.28
75420;BME280;63998;52.488;13.428;2023-06-24T01:54:04;101708.69;;;17.08;83.02
75420;BME280;63998;52.488;13.428;2023-06-24T01:56:31;101704.31;;;17.08;82.96
75420;BME280;63998;52.488;13.428;2023-06-24T01:59:01;101701.69;;;17.07;82.69
75420;BME280;63998;52.488;13.428;2023-06-24T02:01:27;101702.56;;;17.09;82.87
75420;BME280;63998;52.488;13.428;2023-06-24T02:03:54;101704.41;;;16.98;83.03
75420;BME280;63998;52.488;13.428;2023-06-24T02:06:22;101699.16;;;16.98;82.83
75420;BME280;63998;52.488;13.428;2023-06-24T02:08:50;101710.53;;;16.97;82.59
75420;BME280;63998;52.488;13.428;2023-06-24T02:11:17;101715.84;;;16.91;82.96
75420;BME280;63998;52.488;13.428;2023-06-24T02:13:44;101700.13;;;16.91;82.60
75420;BME280;63998;52.488;13.428;2023-06-24T02:16:10;101707.00;;;17.01;82.61
75420;BME280;63998;52.488;13.428;2023-06-24T02:18:38;101701.75;;;17.04;81.83
75420;BME280;63998;52.488;13.428;2023-06-24T02:21:07;101703.44;;;17.09;81.68
75420;BME280;63998;52.488;13.428;2023-06-24T02:23:33;101705.13;;;17.15;81.06
75420;BME280;63998;52.488;13.428;2023-06-24T02:26:01;101706.03;;;17.12;80.53
75420;BME280;63998;52.488;13.428;2023-06-24T02:28:28;101697.19;;;17.19;80.02
75420;BME280;63998;52.488;13.428;2023-06-24T02:30:54;101705.03;;;17.24;79.83
75420;BME280;63998;52.488;13.428;2023-06-24T02:33:19;101705.00;;;17.30;79.21
75420;BME280;63998;52.488;13.428;2023-06-24T02:35:45;101709.38;;;17.28;78.62
75420;BME280;63998;52.488;13.428;2023-06-24T02:38:11;101708.56;;;17.20;78.15
75420;BME280;63998;52.488;13.428;2023-06-24T02:40:36;101705.16;;;17.12;78.10
75420;BME280;63998;52.488;13.428;2023-06-24T02:43:02;101708.66;;;17.11;78.34
75420;BME280;63998;52.488;13.428;2023-06-24T02:45:28;101712.16;;;17.10;78.24
75420;BME280;63998;52.488;13.428;2023-06-24T02:47:53;101719.16;;;17.11;78.41
75420;BME280;63998;52.488;13.428;2023-06-24T02:50:21;101714.88;;;17.01;78.15
75420;BME280;63998;52.488;13.428;2023-06-24T02:52:47;101721.03;;;17.00;77.83
75420;BME280;63998;52.488;13.428;2023-06-24T02:55:14;101727.16;;;16.96;77.68
75420;BME280;63998;52.488;13.428;2023-06-24T02:57:40;101741.22;;;16.90;77.65
75420;BME280;63998;52.488;13.428;2023-06-24T03:00:06;101738.56;;;16.95;77.94
75420;BME280;63998;52.488;13.428;2023-06-24T03:02:37;101736.78;;;16.97;77.31
75420;BME280;63998;52.488;13.428;2023-06-24T03:05:03;101737.72;;;16.93;77.69
75420;BME280;63998;52.488;13.428;2023-06-24T03:07:30;101735.09;;;16.93;77.05
75420;BME280;63998;52.488;13.428;2023-06-24T03:09:55;101734.22;;;16.91;77.56
75420;BME280;63998;52.488;13.428;2023-06-24T03:12:21;101745.69;;;16.80;77.05
75420;BME280;63998;52.488;13.428;2023-06-24T03:14:46;101745.69;;;16.80;77.35
75420;BME280;63998;52.488;13.428;2023-06-24T03:17:11;101750.94;;;16.77;77.35
75420;BME280;63998;52.488;13.428;2023-06-24T03:19:37;101757.16;;;16.69;77.73
75420;BME280;63998;52.488;13.428;2023-06-24T03:22:05;101751.84;;;16.73;77.60
75420;BME280;63998;52.488;13.428;2023-06-24T03:24:30;101743.97;;;16.73;77.62
75420;BME280;63998;52.488;13.428;2023-06-24T03:26:56;101762.34;;;16.73;77.23
75420;BME280;63998;52.488;13.428;2023-06-24T03:29:22;101756.22;;;16.74;77.24
75420;BME280;63998;52.488;13.428;2023-06-24T03:31:48;101752.72;;;16.72;77.59
75420;BME280;63998;52.488;13.428;2023-06-24T03:34:13;101761.53;;;16.62;77.53
75420;BME280;63998;52.488;13.428;2023-06-24T03:36:38;101769.41;;;16.62;77.85
75420;BME280;63998;52.488;13.428;2023-06-24T03:39:05;101766.81;;;16.56;77.46
75420;BME280;63998;52.488;13.428;2023-06-24T03:41:30;101766.81;;;16.56;77.67
75420;BME280;63998;52.488;13.428;2023-06-24T03:43:55;101766.81;;;16.53;78.17
75420;BME280;63998;52.488;13.428;2023-06-24T03:46:21;101765.09;;;16.46;77.64
75420;BME280;63998;52.488;13.428;2023-06-24T03:48:47;101762.53;;;16.43;77.85
75420;BME280;63998;52.488;13.428;2023-06-24T03:51:12;101771.22;;;16.46;78.21
75420;BME280;63998;52.488;13.428;2023-06-24T03:53:37;101761.59;;;16.47;78.14
75420;BME280;63998;52.488;13.428;2023-06-24T03:56:03;101772.13;;;16.44;77.73
75420;BME280;63998;52.488;13.428;2023-06-24T03:58:29;101782.66;;;16.38;78.18
75420;BME280;63998;52.488;13.428;2023-06-24T04:00:54;101774.78;;;16.35;78.14
75420;BME280;63998;52.488;13.428;2023-06-24T04:03:22;101776.53;;;16.33;77.93
75420;BME280;63998;52.488;13.428;2023-06-24T04:05:47;101776.53;;;16.36;77.99
75420;BME280;63998;52.488;13.428;2023-06-24T04:08:12;101775.66;;;16.40;78.10
75420;BME280;63998;52.488;13.428;2023-06-24T04:10:38;101779.13;;;16.42;77.40
75420;BME280;63998;52.488;13.428;2023-06-24T04:13:03;101770.47;;;16.31;77.79
75420;BME280;63998;52.488;13.428;2023-06-24T04:15:28;101784.38;;;16.39;77.97
75420;BME280;63998;52.488;13.428;2023-06-24T04:17:54;101769.59;;;16.26;77.89
75420;BME280;63998;52.488;13.428;2023-06-24T04:20:19;101777.44;;;16.32;77.81
75420;BME280;63998;52.488;13.428;2023-06-24T04:22:45;101773.97;;;16.28;77.55
75420;BME280;63998;52.488;13.428;2023-06-24T04:25:10;101780.97;;;16.25;77.66
75420;BME280;63998;52.488;13.428;2023-06-24T04:27:37;101786.19;;;16.25;77.86
75420;BME280;63998;52.488;13.428;2023-06-24T04:30:03;101787.06;;;16.25;77.65
75420;BME280;63998;52.488;13.428;2023-06-24T04:32:29;101796.69;;;16.22;77.76
75420;BME280;63998;52.488;13.428;2023-06-24T04:34:54;101793.19;;;16.23;78.07
75420;BME280;63998;52.488;13.428;2023-06-24T04:37:20;101794.09;;;16.19;78.04
75420;BME280;63998;52.488;13.428;2023-06-24T04:39:46;101794.94;;;16.24;78.28
75420;BME280;63998;52.488;13.428;2023-06-24T04:42:14;101787.94;;;16.26;77.97
75420;BME280;63998;52.488;13.428;2023-06-24T04:44:40;101796.69;;;16.25;77.88
75420;BME280;63998;52.488;13.428;2023-06-24T04:47:05;101787.94;;;16.29;77.83
75420;BME280;63998;52.488;13.428;2023-06-24T04:49:30;101793.19;;;16.29;77.64
75420;BME280;63998;52.488;13.428;2023-06-24T04:51:56;101800.19;;;16.30;77.61
75420;BME280;63998;52.488;13.428;2023-06-24T04:54:21;101810.63;;;16.37;77.39
75420;BME280;63998;52.488;13.428;2023-06-24T04:56:46;101805.38;;;16.36;77.28
75420;BME280;63998;52.488;13.428;2023-06-24T04:59:13;101805.38;;;16.36;77.12
75420;BME280;63998;52.488;13.428;2023-06-24T05:01:39;101808.88;;;16.35;77.10
75420;BME280;63998;52.488;13.428;2023-06-24T05:04:04;101808.88;;;16.38;77.03
75420;BME280;63998;52.488;13.428;2023-06-24T05:06:29;101813.28;;;16.31;77.12
75420;BME280;63998;52.488;13.428;2023-06-24T05:08:55;101811.47;;;16.41;77.46
75420;BME280;63998;52.488;13.428;2023-06-24T05:11:20;101815.81;;;16.48;77.04
75420;BME280;63998;52.488;13.428;2023-06-24T05:13:45;101825.41;;;16.49;76.99
75420;BME280;63998;52.488;13.428;2023-06-24T05:16:11;101821.00;;;16.57;76.76
75420;BME280;63998;52.488;13.428;2023-06-24T05:18:36;101819.25;;;16.59;76.53
75420;BME280;63998;52.488;13.428;2023-06-24T05:21:02;101816.59;;;16.61;76.59
75420;BME280;63998;52.488;13.428;2023-06-24T05:23:27;101815.72;;;16.60;76.37
75420;BME280;63998;52.488;13.428;2023-06-24T05:25:52;101818.34;;;16.62;75.85
75420;BME280;63998;52.488;13.428;2023-06-24T05:28:18;101814.00;;;16.62;76.49
75420;BME280;63998;52.488;13.428;2023-06-24T05:30:45;101815.72;;;16.60;76.30
75420;BME280;63998;52.488;13.428;2023-06-24T05:33:11;101826.19;;;16.72;76.27
75420;BME280;63998;52.488;13.428;2023-06-24T05:35:36;101824.44;;;16.77;75.84
75420;BME280;63998;52.488;13.428;2023-06-24T05:38:05;101826.19;;;16.75;75.57
75420;BME280;63998;52.488;13.428;2023-06-24T05:40:30;101835.78;;;16.76;75.70
75420;BME280;63998;52.488;13.428;2023-06-24T05:42:55;101843.66;;;16.76;75.55
75420;BME280;63998;52.488;13.428;2023-06-24T05:45:21;101841.00;;;16.82;75.82
75420;BME280;63998;52.488;13.428;2023-06-24T05:47:46;101844.47;;;16.91;74.99
75420;BME280;63998;52.488;13.428;2023-06-24T05:50:12;101841.78;;;16.97;75.02
75420;BME280;63998;52.488;13.428;2023-06-24T05:52:37;101850.44;;;17.08;74.98
75420;BME280;63998;52.488;13.428;2023-06-24T05:55:02;101838.94;;;17.26;74.53
75420;BME280;63998;52.488;13.428;2023-06-24T05:57:28;101838.00;;;17.31;73.63
75420;BME280;63998;52.488;13.428;2023-06-24T05:59:53;101841.59;;;17.21;73.64
75420;BME280;63998;52.488;13.428;2023-06-24T06:02:19;101840.72;;;17.23;73.73
75420;BME280;63998;52.488;13.428;2023-06-24T06:04:44;101828.44;;;17.29;73.68
75420;BME280;63998;52.488;13.428;2023-06-24T06:07:09;101833.69;;;17.26;73.70
75420;BME280;63998;52.488;13.428;2023-06-24T06:09:34;101834.56;;;17.29;73.70
75420;BME280;63998;52.488;13.428;2023-06-24T06:12:00;101832.66;;;17.43;73.62
75420;BME280;63998;52.488;13.428;2023-06-24T06:14:25;101833.47;;;17.53;72.93
75420;BME280;63998;52.488;13.428;2023-06-24T06:16:50;101832.53;;;17.58;72.51
75420;BME280;63998;52.488;13.428;2023-06-24T06:19:16;101836.91;;;17.64;72.89
75420;BME280;63998;52.488;13.428;2023-06-24T06:21:41;101834.25;;;17.66;72.57
75420;BME280;63998;52.488;13.428;2023-06-24T06:24:06;101842.91;;;17.77;72.49
75420;BME280;63998;52.488;13.428;2023-06-24T06:26:32;101837.66;;;17.77;71.50
75420;BME280;63998;52.488;13.428;2023-06-24T06:28:57;101835.75;;;17.91;71.54
75420;BME280;63998;52.488;13.428;2023-06-24T06:31:22;101829.53;;;17.97;71.08
75420;BME280;63998;52.488;13.428;2023-06-24T06:33:50;101833.78;;;18.08;71.24
75420;BME280;63998;52.488;13.428;2023-06-24T06:36:16;101833.72;;;18.14;70.84
75420;BME280;63998;52.488;13.428;2023-06-24T06:38:42;101830.13;;;18.21;70.59
75420;BME280;63998;52.488;13.428;2023-06-24T06:41:07;101829.97;;;18.34;70.16
75420;BME280;63998;52.488;13.428;2023-06-24T06:43:33;101822.03;;;18.40;69.79
75420;BME280;63998;52.488;13.428;2023-06-24T06:45:59;101829.91;;;18.40;69.24
75420;BME280;63998;52.488;13.428;2023-06-24T06:48:24;101822.91;;;18.39;69.39
75420;BME280;63998;52.488;13.428;2023-06-24T06:50:49;101821.91;;;18.47;69.42
75420;BME280;63998;52.488;13.428;2023-06-24T06:53:15;101830.63;;;18.52;69.26
75420;BME280;63998;52.488;13.428;2023-06-24T06:55:40;101828.03;;;18.48;69.28
75420;BME280;63998;52.488;13.428;2023-06-24T06:58:08;101827.97;;;18.54;69.13
75420;BME280;63998;52.488;13.428;2023-06-24T07:00:33;101829.69;;;18.58;69.01
75420;BME280;63998;52.488;13.428;2023-06-24T07:02:58;101834.03;;;18.60;69.33
75420;BME280;63998;52.488;13.428;2023-06-24T07:05:23;101839.13;;;18.74;69.05
75420;BME280;63998;52.488;13.428;2023-06-24T07:07:49;101827.66;;;18.78;68.33
75420;BME280;63998;52.488;13.428;2023-06-24T07:10:15;101833.78;;;18.79;68.28
75420;BME280;63998;52.488;13.428;2023-06-24T07:12:41;101827.72;;;18.74;68.13
75420;BME280;63998;52.488;13.428;2023-06-24T07:15:07;101826.81;;;18.76;68.06
75420;BME280;63998;52.488;13.428;2023-06-24T07:17:32;101829.34;;;18.82;67.62
75420;BME280;63998;52.488;13.428;2023-06-24T07:19:57;101836.28;;;18.89;66.97
75420;BME280;63998;52.488;13.428;2023-06-24T07:22:23;101837.81;;;19.02;66.78
75420;BME280;63998;52.488;13.428;2023-06-24T07:24:48;101833.31;;;19.09;66.19
75420;BME280;63998;52.488;13.428;2023-06-24T07:27:13;101832.44;;;19.09;64.08
75420;BME280;63998;52.488;13.428;2023-06-24T07:29:39;101841.16;;;19.14;63.97
75420;BME280;63998;52.488;13.428;2023-06-24T07:32:04;101837.53;;;19.21;63.43
75420;BME280;63998;52.488;13.428;2023-06-24T07:34:30;101858.50;;;19.27;61.91
75420;BME280;63998;52.488;13.428;2023-06-24T07:36:56;101852.22;;;19.34;61.79
75420;BME280;63998;52.488;13.428;2023-06-24T07:39:22;101865.25;;;19.43;61.15
75420;BME280;63998;52.488;13.428;2023-06-24T07:41:47;101868.69;;;19.51;60.91
75420;BME280;63998;52.488;13.428;2023-06-24T07:44:13;101865.06;;;19.55;61.12
75420;BME280;63998;52.488;13.428;2023-06-24T07:46:38;101859.72;;;19.61;61.04
75420;BME280;63998;52.488;13.428;2023-06-24T07:49:03;101854.44;;;19.61;59.53
75420;BME280;63998;52.488;13.428;2023-06-24T07:51:29;101854.03;;;19.32;58.81
75420;BME280;63998;52.488;13.428;2023-06-24T07:53:54;101852.34;;;19.28;58.61
75420;BME280;63998;52.488;13.428;2023-06-24T07:56:19;101862.63;;;19.42;59.02
75420;BME280;63998;52.488;13.428;2023-06-24T07:58:44;101868.50;;;19.60;59.22
75420;BME280;63998;52.488;13.428;2023-06-24T08:01:10;101857.94;;;19.62;59.41
75420;BME280;63998;52.488;13.428;2023-06-24T08:03:35;101861.31;;;19.68;58.47
75420;BME280;63998;52.488;13.428;2023-06-24T08:06:02;101863.75;;;19.81;58.45
75420;BME280;63998;52.488;13.428;2023-06-24T08:08:27;101847.66;;;19.96;59.46
75420;BME280;63998;52.488;13.428;2023-06-24T08:10:53;101851.69;;;20.15;58.96
75420;BME280;63998;52.488;13.428;2023-06-24T08:13:18;101841.84;;;20.23;58.64
75420;BME280;63998;52.488;13.428;2023-06-24T08:15:44;101858.41;;;20.28;58.00
75420;BME280;63998;52.488;13.428;2023-06-24T08:18:09;101853.06;;;20.33;58.06
75420;BME280;63998;52.488;13.428;2023-06-24T08:20:35;101859.94;;;20.41;57.37
75420;BME280;63998;52.488;13.428;2023-06-24T08:23:00;101863.59;;;20.34;56.23
75420;BME280;63998;52.488;13.428;2023-06-24T08:25:47;101861.47;;;20.08;57.17
75420;BME280;63998;52.488;13.428;2023-06-24T08:28:13;101857.13;;;20.06;57.23
75420;BME280;63998;52.488;13.428;2023-06-24T08:30:38;101867.63;;;20.07;55.70
75420;BME280;63998;52.488;13.428;2023-06-24T08:33:03;101868.47;;;20.09;56.60
75420;BME280;63998;52.488;13.428;2023-06-24T08:35:29;101867.28;;;20.27;56.68
75420;BME280;63998;52.488;13.428;2023-06-24T08:37:54;101866.78;;;20.52;56.48
75420;BME280;63998;52.488;13.428;2023-06-24T08:40:19;101865.97;;;20.48;56.72
75420;BME280;63998;52.488;13.428;2023-06-24T08:42:45;101866.91;;;20.46;56.11
75420;BME280;63998;52.488;13.428;2023-06-24T08:45:10;101861.31;;;20.61;56.28
75420;BME280;63998;52.488;13.428;2023-06-24T08:47:35;101865.47;;;20.71;56.27
75420;BME280;63998;52.488;13.428;2023-06-24T08:50:04;101871.66;;;20.70;55.20
75420;BME280;63998;52.488;13.428;2023-06-24T08:52:32;101855.47;;;20.85;55.88
75420;BME280;63998;52.488;13.428;2023-06-24T08:55:00;101857.72;;;21.02;55.73
75420;BME280;63998;52.488;13.428;2023-06-24T08:57:26;101869.44;;;20.90;54.26
75420;BME280;63998;52.488;13.428;2023-06-24T08:59:52;101866.38;;;20.70;54.38
75420;BME280;63998;52.488;13.428;2023-06-24T09:02:17;101863.56;;;20.77;53.24
75420;BME280;63998;52.488;13.428;2023-06-24T09:04:43;101865.22;;;20.83;50.82
75420;BME280;63998;52.488;13.428;2023-06-24T09:07:08;101867.47;;;21.00;52.36
75420;BME280;63998;52.488;13.428;2023-06-24T09:09:42;101880.88;;;20.91;51.53
75420;BME280;63998;52.488;13.428;2023-06-24T09:12:10;101875.47;;;20.97;52.71
75420;BME280;63998;52.488;13.428;2023-06-24T09:14:36;101886.03;;;20.97;51.88
75420;BME280;63998;52.488;13.428;2023-06-24T09:17:02;101883.41;;;20.95;51.44
75420;BME280;63998;52.488;13.428;2023-06-24T09:19:28;101876.13;;;21.06;51.74
75420;BME280;63998;52.488;13.428;2023-06-24T09:22:02;101869.66;;;21.18;52.34
75420;BME280;63998;52.488;13.428;2023-06-24T09:24:30;101860.75;;;21.25;50.13
75420;BME280;63998;52.488;13.428;2023-06-24T09:26:56;101860.56;;;21.31;49.65
75420;BME280;63998;52.488;13.428;2023-06-24T09:29:25;101873.69;;;21.36;49.92
75420;BME280;63998;52.488;13.428;2023-06-24T09:31:51;101864.63;;;21.46;51.03
75420;BME280;63998;52.488;13.428;2023-06-24T09:34:22;101864.31;;;21.58;50.96
75420;BME280;63998;52.488;13.428;2023-06-24T09:37:06;101866.66;;;21.69;50.25
75420;BME280;63998;52.488;13.428;2023-06-24T09:39:37;101857.03;;;21.66;47.75
75420;BME280;63998;52.488;13.428;2023-06-24T09:42:04;101853.16;;;21.79;48.32
75420;BME280;63998;52.488;13.428;2023-06-24T09:44:30;101858.13;;;21.92;48.18
75420;BME280;63998;52.488;13.428;2023-06-24T09:46:55;101857.22;;;21.93;48.66
75420;BME280;63998;52.488;13.428;2023-06-24T09:49:21;101868.41;;;22.04;47.91
75420;BME280;63998;52.488;13.428;2023-06-24T09:51:49;101856.97;;;22.02;46.27
75420;BME280;63998;52.488;13.428;2023-06-24T09:54:15;101860.25;;;22.11;47.42
75420;BME280;63998;52.488;13.428;2023-06-24T09:56:50;101858.06;;;22.26;48.05
75420;BME280;63998;52.488;13.428;2023-06-24T09:59:19;101849.91;;;22.33;47.93
75420;BME280;63998;52.488;13.428;2023-06-24T10:01:45;101842.94;;;22.00;46.48
75420;BME280;63998;52.488;13.428;2023-06-24T10:04:15;101853.88;;;21.86;47.43
75420;BME280;63998;52.488;13.428;2023-06-24T10:06:41;101846.22;;;21.75;47.54
75420;BME280;63998;52.488;13.428;2023-06-24T10:09:06;101846.38;;;21.69;47.39
75420;BME280;63998;52.488;13.428;2023-06-24T10:11:32;101844.38;;;21.45;48.66
75420;BME280;63998;52.488;13.428;2023-06-24T10:13:57;101828.19;;;21.90;49.40
75420;BME280;63998;52.488;13.428;2023-06-24T10:16:23;101838.09;;;22.14;47.76
75420;BME280;63998;52.488;13.428;2023-06-24T10:18:48;101833.28;;;22.28;47.83
75420;BME280;63998;52.488;13.428;2023-06-24T10:21:15;101831.31;;;22.36;47.19
75420;BME280;63998;52.488;13.428;2023-06-24T10:34:31;101835.19;;;23.11;44.10
75420;BME280;63998;52.488;13.428;2023-06-24T10:47:28;101830.28;;;23.52;43.83
75420;BME280;63998;52.488;13.428;2023-06-24T10:49:54;101810.38;;;23.65;44.16
75420;BME280;63998;52.488;13.428;2023-06-24T10:52:22;101812.09;;;23.66;44.38
75420;BME280;63998;52.488;13.428;2023-06-24T10:54:48;101808.16;;;23.78;43.67
75420;BME280;63998;52.488;13.428;2023-06-24T10:57:14;101814.69;;;23.92;43.13
75420;BME280;63998;52.488;13.428;2023-06-24T10:59:46;101806.13;;;24.09;43.03
75420;BME280;63998;52.488;13.428;2023-06-24T11:02:30;101811.88;;;23.97;42.25
75420;BME280;63998;52.488;13.428;2023-06-24T11:05:00;101815.53;;;24.18;42.91
75420;BME280;63998;52.488;13.428;2023-06-24T11:07:30;101801.53;;;24.13;43.51
75420;BME280;63998;52.488;13.428;2023-06-24T11:09:58;101809.53;;;24.36;43.59
75420;BME280;63998;52.488;13.428;2023-06-24T11:12:25;101817.66;;;24.55;43.64
75420;BME280;63998;52.488;13.428;2023-06-24T11:14:51;101811.81;;;24.47;42.89
75420;BME280;63998;52.488;13.428;2023-06-24T11:17:20;101809.28;;;24.65;42.68
75420;BME280;63998;52.488;13.428;2023-06-24T11:19:46;101812.75;;;24.67;41.03
75420;BME280;63998;52.488;13.428;2023-06-24T11:22:11;101812.09;;;24.84;39.94
75420;BME280;63998;52.488;13.428;2023-06-24T11:24:36;101810.59;;;24.99;40.57
75420;BME280;63998;52.488;13.428;2023-06-24T11:27:04;101804.19;;;25.04;40.60
75420;BME280;63998;52.488;13.428;2023-06-24T11:29:29;101805.03;;;25.05;40.48
75420;BME280;63998;52.488;13.428;2023-06-24T11:31:55;101807.84;;;25.22;40.67
75420;BME280;63998;52.488;13.428;2023-06-24T11:34:21;101808.28;;;25.54;39.84
75420;BME280;63998;52.488;13.428;2023-06-24T11:36:48;101804.81;;;25.52;39.75
75420;BME280;63998;52.488;13.428;2023-06-24T11:39:26;101806.97;;;25.44;39.52
75420;BME280;63998;52.488;13.428;2023-06-24T11:41:53;101795.44;;;25.43;40.02
75420;BME280;63998;52.488;13.428;2023-06-24T11:44:23;101799.94;;;25.63;39.63
75420;BME280;63998;52.488;13.428;2023-06-24T11:46:49;101791.81;;;25.66;39.22
75420;BME280;63998;52.488;13.428;2023-06-24T11:49:15;101802.84;;;25.77;38.14
75420;BME280;63998;52.488;13.428;2023-06-24T11:51:50;101792.72;;;25.45;37.08
75420;BME280;63998;52.488;13.428;2023-06-24T11:54:19;101798.00;;;25.04;38.12
75420;BME280;63998;52.488;13.428;2023-06-24T11:56:50;101792.44;;;25.51;38.12
75420;BME280;63998;52.488;13.428;2023-06-24T11:59:17;101787.81;;;25.76;38.19
75420;BME280;63998;52.488;13.428;2023-06-24T12:01:43;101794.69;;;26.00;38.33
75420;BME280;63998;52.488;13.428;2023-06-24T12:04:15;101792.31;;;25.94;37.98
75420;BME280;63998;52.488;13.428;2023-06-24T12:06:41;101791.91;;;26.03;37.23
75420;BME280;63998;52.488;13.428;2023-06-24T12:09:10;101798.16;;;26.21;37.43
75420;BME280;63998;52.488;13.428;2023-06-24T12:11:36;101787.44;;;26.23;36.20
75420;BME280;63998;52.488;13.428;2023-06-24T12:14:02;101785.47;;;26.28;36.85
75420;BME280;63998;52.488;13.428;2023-06-24T12:16:27;101783.06;;;26.59;36.93
75420;BME280;63998;52.488;13.428;2023-06-24T12:18:53;101780.84;;;26.50;36.60
75420;BME280;63998;52.488;13.428;2023-06-24T12:21:19;101788.63;;;26.91;35.66
75420;BME280;63998;52.488;13.428;2023-06-24T12:23:44;101789.03;;;27.19;35.74
75420;BME280;63998;52.488;13.428;2023-06-24T12:26:10;101784.22;;;27.43;34.44
75420;BME280;63998;52.488;13.428;2023-06-24T12:28:36;101784.00;;;27.65;34.68
75420;BME280;63998;52.488;13.428;2023-06-24T12:31:01;101782.22;;;28.14;34.46
75420;BME280;63998;52.488;13.428;2023-06-24T12:33:26;101771.06;;;28.39;33.06
75420;BME280;63998;52.488;13.428;2023-06-24T12:35:52;101770.88;;;28.57;32.53
75420;BME280;63998;52.488;13.428;2023-06-24T12:38:17;101774.34;;;28.28;32.01
75420;BME280;63998;52.488;13.428;2023-06-24T12:40:43;101776.75;;;28.48;32.56
75420;BME280;63998;52.488;13.428;2023-06-24T12:43:08;101774.53;;;28.41;31.75
75420;BME280;63998;52.488;13.428;2023-06-24T12:45:34;101767.28;;;28.43;32.21
75420;BME280;63998;52.488;13.428;2023-06-24T12:47:59;101774.94;;;28.65;32.00
75420;BME280;63998;52.488;13.428;2023-06-24T12:50:25;101769.31;;;28.85;32.74
75420;BME280;63998;52.488;13.428;2023-06-24T12:52:50;101765.28;;;29.08;32.07
75420;BME280;63998;52.488;13.428;2023-06-24T12:55:15;101764.50;;;29.51;32.42
75420;BME280;63998;52.488;13.428;2023-06-24T12:57:41;101764.47;;;29.80;30.93
75420;BME280;63998;52.488;13.428;2023-06-24T13:00:07;101762.94;;;29.47;31.43
75420;BME280;63998;52.488;13.428;2023-06-24T13:02:33;101769.53;;;29.12;31.28
75420;BME280;63998;52.488;13.428;2023-06-24T13:04:58;101752.63;;;29.70;32.15
75420;BME280;63998;52.488;13.428;2023-06-24T13:07:23;101760.28;;;29.76;31.30
75420;BME280;63998;52.488;13.428;2023-06-24T13:09:49;101755.22;;;29.71;31.52
75420;BME280;63998;52.488;13.428;2023-06-24T13:12:14;101767.75;;;29.71;30.75